sensor_id;sensor_type;location;lat;lon;timestamp;pressure;altitude;pressure_sealevel;temperature;humidity
60820;BME280;46641;48.904;9.126;2022-11-09T00:04:30;98192.44;;;16.13;55.20
60820;BME280;46641;48.904;9.126;2022-11-09T00:09:20;98203.81;;;16.13;55.21
60820;BME280;46641;48.904;9.126;2022-11-09T00:14:15;98213.34;;;16.15;55.27
60820;BME280;46641;48.904;9.126;2022-11-09T00:19:05;98198.53;;;16.13;55.19
60820;BME280;46641;48.904;9.126;2022-11-09T00:23:56;98195.06;;;16.13;55.32
60820;BME280;46641;48.904;9.126;2022-11-09T00:28:47;98189.16;;;16.11;55.26
60820;BME280;46641;48.904;9.126;2022-11-09T00:33:38;98188.53;;;16.09;55.22
60820;BME280;46641;48.904;9.126;2022-11-09T00:38:28;98193.81;;;16.09;55.31
60820;BME280;46641;48.904;9.126;2022-11-09T00:43:18;98183.44;;;16.07;55.26
60820;BME280;46641;48.904;9.126;2022-11-09T00:48:09;98183.25;;;16.09;55.21
60820;BME280;46641;48.904;9.126;2022-11-09T00:52:59;98176.16;;;16.09;55.26
60820;BME280;46641;48.904;9.126;2022-11-09T00:57:50;98171.03;;;16.08;55.35
60820;BME280;46641;48.904;9.126;2022-11-09T01:02:41;98174.50;;;16.08;55.42
60820;BME280;46641;48.904;9.126;2022-11-09T01:07:31;98171.25;;;16.06;55.16
60820;BME280;46641;48.904;9.126;2022-11-09T01:12:21;98180.78;;;16.07;55.28
60820;BME280;46641;48.904;9.126;2022-11-09T01:17:11;98184.25;;;16.08;55.27
60820;BME280;46641;48.904;9.126;2022-11-09T01:22:02;98181.00;;;16.06;55.46
60820;BME280;46641;48.904;9.126;2022-11-09T01:26:52;98193.19;;;16.07;55.32
60820;BME280;46641;48.904;9.126;2022-11-09T01:31:42;98189.72;;;16.06;55.53
60820;BME280;46641;48.904;9.126;2022-11-09T01:36:33;98191.56;;;16.06;55.40
60820;BME280;46641;48.904;9.126;2022-11-09T01:41:25;98200.09;;;16.08;55.31
60820;BME280;46641;48.904;9.126;2022-11-09T01:46:21;98190.53;;;16.07;55.25
60820;BME280;46641;48.904;9.126;2022-11-09T01:51:18;98196.84;;;16.06;55.63
60820;BME280;46641;48.904;9.126;2022-11-09T01:56:12;98199.03;;;16.02;55.56
60820;BME280;46641;48.904;9.126;2022-11-09T02:01:03;98197.22;;;16.03;55.34
60820;BME280;46641;48.904;9.126;2022-11-09T02:06:02;98219.16;;;16.03;55.13
60820;BME280;46641;48.904;9.126;2022-11-09T02:11:03;98225.63;;;16.01;55.32
60820;BME280;46641;48.904;9.126;2022-11-09T02:15:55;98229.88;;;16.02;55.41
60820;BME280;46641;48.904;9.126;2022-11-09T02:20:48;98214.88;;;16.02;55.38
60820;BME280;46641;48.904;9.126;2022-11-09T02:25:39;98224.44;;;16.03;55.50
60820;BME280;46641;48.904;9.126;2022-11-09T02:30:32;98242.09;;;16.03;55.62
60820;BME280;46641;48.904;9.126;2022-11-09T02:35:23;98234.19;;;16.03;55.65
60820;BME280;46641;48.904;9.126;2022-11-09T02:40:21;98224.00;;;16.00;55.72
60820;BME280;46641;48.904;9.126;2022-11-09T02:45:12;98233.53;;;16.01;55.71
60820;BME280;46641;48.904;9.126;2022-11-09T02:50:03;98236.19;;;16.01;55.78
60820;BME280;46641;48.904;9.126;2022-11-09T02:54:53;98244.09;;;16.01;55.83
60820;BME280;46641;48.904;9.126;2022-11-09T02:59:43;98256.28;;;16.02;55.74
60820;BME280;46641;48.904;9.126;2022-11-09T03:04:33;98250.38;;;16.00;55.92
60820;BME280;46641;48.904;9.126;2022-11-09T03:09:24;98250.56;;;15.98;56.05
60820;BME280;46641;48.904;9.126;2022-11-09T03:14:14;98257.66;;;15.98;56.06
60820;BME280;46641;48.904;9.126;2022-11-09T03:19:05;98252.22;;;15.99;56.04
60820;BME280;46641;48.904;9.126;2022-11-09T03:23:55;98249.56;;;15.99;56.01
60820;BME280;46641;48.904;9.126;2022-11-09T03:28:46;98250.38;;;16.00;56.03
60820;BME280;46641;48.904;9.126;2022-11-09T03:33:36;98255.03;;;15.98;56.09
60820;BME280;46641;48.904;9.126;2022-11-09T03:38:27;98263.75;;;15.98;56.10
60820;BME280;46641;48.904;9.126;2022-11-09T03:43:17;98252.22;;;15.99;56.15
60820;BME280;46641;48.904;9.126;2022-11-09T03:48:07;98259.28;;;15.99;56.31
60820;BME280;46641;48.904;9.126;2022-11-09T03:53:00;98258.47;;;15.98;56.21
60820;BME280;46641;48.904;9.126;2022-11-09T03:57:51;98257.66;;;15.98;56.31
60820;BME280;46641;48.904;9.126;2022-11-09T04:02:41;98259.69;;;15.96;56.42
60820;BME280;46641;48.904;9.126;2022-11-09T04:07:31;98253.56;;;15.95;56.37
60820;BME280;46641;48.904;9.126;2022-11-09T04:12:21;98254.59;;;15.94;56.43
60820;BME280;46641;48.904;9.126;2022-11-09T04:17:12;98260.88;;;15.93;56.40
60820;BME280;46641;48.904;9.126;2022-11-09T04:22:02;98262.50;;;15.94;56.23
60820;BME280;46641;48.904;9.126;2022-11-09T04:26:52;98267.78;;;15.94;56.48
60820;BME280;46641;48.904;9.126;2022-11-09T04:31:43;98274.69;;;15.95;56.52
60820;BME280;46641;48.904;9.126;2022-11-09T04:36:33;98275.53;;;15.96;56.42
60820;BME280;46641;48.904;9.126;2022-11-09T04:41:23;98265.97;;;15.95;56.52
60820;BME280;46641;48.904;9.126;2022-11-09T04:46:13;98271.25;;;15.95;56.54
60820;BME280;46641;48.904;9.126;2022-11-09T04:51:06;98281.78;;;15.95;56.55
60820;BME280;46641;48.904;9.126;2022-11-09T04:55:57;98270.63;;;15.93;56.67
60820;BME280;46641;48.904;9.126;2022-11-09T05:00:47;98268.16;;;15.91;56.77
60820;BME280;46641;48.904;9.126;2022-11-09T05:05:38;98259.44;;;15.91;57.00
60820;BME280;46641;48.904;9.126;2022-11-09T05:10:29;98258.78;;;15.88;57.08
60820;BME280;46641;48.904;9.126;2022-11-09T05:15:19;98257.16;;;15.87;57.04
60820;BME280;46641;48.904;9.126;2022-11-09T05:20:09;98251.25;;;15.85;56.76
60820;BME280;46641;48.904;9.126;2022-11-09T05:25:00;98249.88;;;15.89;56.76
60820;BME280;46641;48.904;9.126;2022-11-09T05:29:50;98246.22;;;15.91;56.85
60820;BME280;46641;48.904;9.126;2022-11-09T05:34:40;98237.69;;;15.88;56.75
60820;BME280;46641;48.904;9.126;2022-11-09T05:39:31;98255.16;;;15.89;56.83
60820;BME280;46641;48.904;9.126;2022-11-09T05:44:21;98242.97;;;15.88;56.80
60820;BME280;46641;48.904;9.126;2022-11-09T05:49:11;98244.78;;;15.88;56.99
60820;BME280;46641;48.904;9.126;2022-11-09T05:54:01;98246.81;;;15.86;57.00
60820;BME280;46641;48.904;9.126;2022-11-09T05:58:52;98247.78;;;15.85;56.88
60820;BME280;46641;48.904;9.126;2022-11-09T06:03:42;98253.88;;;15.85;57.09
60820;BME280;46641;48.904;9.126;2022-11-09T06:08:33;98254.91;;;15.84;57.04
60820;BME280;46641;48.904;9.126;2022-11-09T06:13:23;98256.72;;;15.84;56.98
60820;BME280;46641;48.904;9.126;2022-11-09T06:18:14;98274.19;;;15.85;57.06
60820;BME280;46641;48.904;9.126;2022-11-09T06:23:04;98288.56;;;15.31;60.88
60820;BME280;46641;48.904;9.126;2022-11-09T06:27:55;98300.72;;;15.47;60.66
60820;BME280;46641;48.904;9.126;2022-11-09T06:32:45;98288.34;;;15.48;61.01
60820;BME280;46641;48.904;9.126;2022-11-09T06:37:35;98280.31;;;15.56;60.62
60820;BME280;46641;48.904;9.126;2022-11-09T06:42:26;98282.06;;;15.63;60.55
60820;BME280;46641;48.904;9.126;2022-11-09T06:47:16;98284.78;;;15.70;60.27
60820;BME280;46641;48.904;9.126;2022-11-09T06:52:07;98306.53;;;15.72;60.02
60820;BME280;46641;48.904;9.126;2022-11-09T06:56:57;98312.88;;;15.78;59.54
60820;BME280;46641;48.904;9.126;2022-11-09T07:01:47;98355.56;;;15.81;59.41
60820;BME280;46641;48.904;9.126;2022-11-09T07:06:41;98403.72;;;15.16;63.17
60820;BME280;46641;48.904;9.126;2022-11-09T07:11:32;98392.16;;;15.17;63.13
60820;BME280;46641;48.904;9.126;2022-11-09T07:16:22;98391.09;;;15.26;62.81
60820;BME280;46641;48.904;9.126;2022-11-09T07:21:12;98379.94;;;15.39;62.58
60820;BME280;46641;48.904;9.126;2022-11-09T07:26:03;98376.56;;;15.45;62.37
60820;BME280;46641;48.904;9.126;2022-11-09T07:30:53;98368.56;;;15.38;62.95
60820;BME280;46641;48.904;9.126;2022-11-09T07:35:44;98370.38;;;15.38;63.19
60820;BME280;46641;48.904;9.126;2022-11-09T07:40:35;98363.00;;;15.33;63.64
60820;BME280;46641;48.904;9.126;2022-11-09T07:45:27;98365.81;;;15.47;63.05
60820;BME280;46641;48.904;9.126;2022-11-09T07:50:18;98372.03;;;15.54;62.59
60820;BME280;46641;48.904;9.126;2022-11-09T07:55:08;98380.03;;;15.60;62.28
60820;BME280;46641;48.904;9.126;2022-11-09T07:59:58;98385.09;;;15.62;62.38
60820;BME280;46641;48.904;9.126;2022-11-09T08:04:49;98368.91;;;15.65;62.37
60820;BME280;46641;48.904;9.126;2022-11-09T08:09:39;98370.53;;;15.66;62.20
60820;BME280;46641;48.904;9.126;2022-11-09T08:14:29;98370.22;;;15.69;62.29
60820;BME280;46641;48.904;9.126;2022-11-09T08:19:20;98372.03;;;15.69;62.46
60820;BME280;46641;48.904;9.126;2022-11-09T08:24:10;98353.19;;;15.72;62.53
60820;BME280;46641;48.904;9.126;2022-11-09T08:29:00;98344.09;;;15.74;62.48
60820;BME280;46641;48.904;9.126;2022-11-09T08:33:51;98357.28;;;15.74;62.39
60820;BME280;46641;48.904;9.126;2022-11-09T08:38:42;98350.19;;;15.75;62.28
60820;BME280;46641;48.904;9.126;2022-11-09T08:43:33;98360.19;;;15.79;62.36
60820;BME280;46641;48.904;9.126;2022-11-09T08:48:23;98342.72;;;15.78;62.23
60820;BME280;46641;48.904;9.126;2022-11-09T08:53:14;98347.84;;;15.80;62.21
60820;BME280;46641;48.904;9.126;2022-11-09T08:58:04;98352.75;;;15.83;62.51
60820;BME280;46641;48.904;9.126;2022-11-09T09:02:54;98356.19;;;15.83;62.38
60820;BME280;46641;48.904;9.126;2022-11-09T09:07:45;98363.91;;;15.85;62.45
60820;BME280;46641;48.904;9.126;2022-11-09T09:12:36;98354.00;;;15.87;62.47
60820;BME280;46641;48.904;9.126;2022-11-09T09:17:26;98361.09;;;15.86;62.40
60820;BME280;46641;48.904;9.126;2022-11-09T09:22:17;98359.09;;;15.88;62.42
60820;BME280;46641;48.904;9.126;2022-11-09T09:27:07;98359.91;;;15.89;62.50
60820;BME280;46641;48.904;9.126;2022-11-09T09:31:57;98362.38;;;15.91;62.30
60820;BME280;46641;48.904;9.126;2022-11-09T09:36:51;98374.19;;;15.95;62.40
60820;BME280;46641;48.904;9.126;2022-11-09T09:41:53;98377.63;;;15.95;62.22
60820;BME280;46641;48.904;9.126;2022-11-09T09:51:54;98393.47;;;15.95;62.61
60820;BME280;46641;48.904;9.126;2022-11-09T09:56:48;98388.38;;;15.94;62.47
60820;BME280;46641;48.904;9.126;2022-11-09T10:01:41;98398.59;;;15.97;62.63
60820;BME280;46641;48.904;9.126;2022-11-09T10:06:47;98396.13;;;15.95;62.62
60820;BME280;46641;48.904;9.126;2022-11-09T10:11:43;98402.31;;;16.02;62.34
60820;BME280;46641;48.904;9.126;2022-11-09T10:21:45;98397.78;;;16.18;61.99
60820;BME280;46641;48.904;9.126;2022-11-09T10:26:41;98385.69;;;16.23;62.05
60820;BME280;46641;48.904;9.126;2022-11-09T10:31:33;98383.94;;;16.30;61.71
60820;BME280;46641;48.904;9.126;2022-11-09T10:36:33;98383.94;;;16.30;61.93
60820;BME280;46641;48.904;9.126;2022-11-09T10:41:38;98366.06;;;16.32;61.92
60820;BME280;46641;48.904;9.126;2022-11-09T10:46:29;98372.63;;;16.36;61.63
60820;BME280;46641;48.904;9.126;2022-11-09T10:51:41;98353.94;;;16.38;61.59
60820;BME280;46641;48.904;9.126;2022-11-09T10:56:42;98349.09;;;16.42;61.93
60820;BME280;46641;48.904;9.126;2022-11-09T11:01:36;98352.19;;;16.45;61.86
60820;BME280;46641;48.904;9.126;2022-11-09T11:06:27;98350.78;;;16.49;61.77
60820;BME280;46641;48.904;9.126;2022-11-09T11:11:28;98345.94;;;16.53;61.53
60820;BME280;46641;48.904;9.126;2022-11-09T11:16:32;98344.75;;;16.55;61.81
60820;BME280;46641;48.904;9.126;2022-11-09T11:21:24;98338.66;;;16.55;61.65
60820;BME280;46641;48.904;9.126;2022-11-09T11:31:14;98323.28;;;16.65;61.85
60820;BME280;46641;48.904;9.126;2022-11-09T11:36:19;98322.09;;;16.68;61.75
60820;BME280;46641;48.904;9.126;2022-11-09T11:46:26;98321.34;;;16.74;61.44
60820;BME280;46641;48.904;9.126;2022-11-09T11:56:47;98322.03;;;16.82;61.54
60820;BME280;46641;48.904;9.126;2022-11-09T12:07:11;98321.63;;;16.36;65.88
60820;BME280;46641;48.904;9.126;2022-11-09T12:17:24;98302.38;;;16.70;65.18
60820;BME280;46641;48.904;9.126;2022-11-09T12:22:38;98291.63;;;16.72;65.09
60820;BME280;46641;48.904;9.126;2022-11-09T12:27:59;98294.88;;;16.46;66.40
60820;BME280;46641;48.904;9.126;2022-11-09T12:33:14;98293.25;;;16.94;63.81
60820;BME280;46641;48.904;9.126;2022-11-09T12:38:13;98291.53;;;17.15;63.03
60820;BME280;46641;48.904;9.126;2022-11-09T12:48:32;98294.47;;;17.26;62.39
60820;BME280;46641;48.904;9.126;2022-11-09T12:53:31;98296.09;;;17.27;62.56
60820;BME280;46641;48.904;9.126;2022-11-09T12:58:24;98294.47;;;17.26;62.23
60820;BME280;46641;48.904;9.126;2022-11-09T13:03:24;98291.59;;;17.28;62.27
60820;BME280;46641;48.904;9.126;2022-11-09T13:08:19;98285.50;;;17.27;62.27
60820;BME280;46641;48.904;9.126;2022-11-09T13:33:20;98299.00;;;17.39;61.88
60820;BME280;46641;48.904;9.126;2022-11-09T13:43:15;98311.63;;;17.44;61.80
60820;BME280;46641;48.904;9.126;2022-11-09T13:58:45;98329.13;;;17.45;61.81
60820;BME280;46641;48.904;9.126;2022-11-09T14:03:39;98334.03;;;17.48;61.36
60820;BME280;46641;48.904;9.126;2022-11-09T14:08:33;98343.00;;;17.47;61.60
60820;BME280;46641;48.904;9.126;2022-11-09T14:23:27;98353.19;;;17.50;61.88
60820;BME280;46641;48.904;9.126;2022-11-09T14:28:27;98352.16;;;17.51;61.74
60820;BME280;46641;48.904;9.126;2022-11-09T14:33:26;98359.09;;;17.52;61.99
60820;BME280;46641;48.904;9.126;2022-11-09T14:38:23;98365.00;;;17.54;61.80
60820;BME280;46641;48.904;9.126;2022-11-09T14:43:26;98362.34;;;17.54;62.05
60820;BME280;46641;48.904;9.126;2022-11-09T14:48:19;98359.72;;;17.54;61.38
60820;BME280;46641;48.904;9.126;2022-11-09T14:53:15;98372.13;;;17.53;61.72
60820;BME280;46641;48.904;9.126;2022-11-09T14:58:11;98377.25;;;17.55;61.58
60820;BME280;46641;48.904;9.126;2022-11-09T15:03:24;98383.53;;;17.54;61.98
60820;BME280;46641;48.904;9.126;2022-11-09T15:08:19;98384.53;;;17.53;61.57
60820;BME280;46641;48.904;9.126;2022-11-09T15:13:10;98391.47;;;17.54;61.37
60820;BME280;46641;48.904;9.126;2022-11-09T15:18:01;98394.13;;;17.54;61.34
60820;BME280;46641;48.904;9.126;2022-11-09T15:28:03;98398.59;;;17.53;62.13
60820;BME280;46641;48.904;9.126;2022-11-09T15:33:21;98401.44;;;17.52;61.73
60820;BME280;46641;48.904;9.126;2022-11-09T15:38:38;98409.38;;;17.52;61.70
60820;BME280;46641;48.904;9.126;2022-11-09T15:43:29;98404.91;;;17.52;61.24
60820;BME280;46641;48.904;9.126;2022-11-09T15:48:19;98403.75;;;17.34;63.72
60820;BME280;46641;48.904;9.126;2022-11-09T15:53:12;98408.88;;;17.42;62.96
60820;BME280;46641;48.904;9.126;2022-11-09T15:58:02;98404.06;;;17.45;62.73
60820;BME280;46641;48.904;9.126;2022-11-09T16:02:53;98402.22;;;17.46;62.69
60820;BME280;46641;48.904;9.126;2022-11-09T16:07:52;98402.81;;;17.48;62.99
60820;BME280;46641;48.904;9.126;2022-11-09T16:12:42;98410.75;;;17.48;62.13
60820;BME280;46641;48.904;9.126;2022-11-09T16:17:33;98408.13;;;17.48;62.04
60820;BME280;46641;48.904;9.126;2022-11-09T16:22:28;98412.59;;;17.47;62.30
60820;BME280;46641;48.904;9.126;2022-11-09T16:27:18;98426.03;;;17.46;61.96
60820;BME280;46641;48.904;9.126;2022-11-09T16:32:09;98422.38;;;17.47;61.83
60820;BME280;46641;48.904;9.126;2022-11-09T16:36:59;98427.03;;;17.45;61.62
60820;BME280;46641;48.904;9.126;2022-11-09T16:41:49;98432.53;;;17.43;61.45
60820;BME280;46641;48.904;9.126;2022-11-09T16:46:44;98433.34;;;17.44;61.63
60820;BME280;46641;48.904;9.126;2022-11-09T16:51:36;98444.94;;;17.43;61.42
60820;BME280;46641;48.904;9.126;2022-11-09T16:56:27;98456.13;;;17.45;61.32
60820;BME280;46641;48.904;9.126;2022-11-09T17:01:17;98457.16;;;17.44;61.38
60820;BME280;46641;48.904;9.126;2022-11-09T17:06:08;98476.69;;;17.43;61.74
60820;BME280;46641;48.904;9.126;2022-11-09T17:11:06;98481.16;;;17.42;61.65
60820;BME280;46641;48.904;9.126;2022-11-09T17:16:05;98494.78;;;17.39;61.70
60820;BME280;46641;48.904;9.126;2022-11-09T17:20:56;98500.88;;;17.40;61.46
60820;BME280;46641;48.904;9.126;2022-11-09T17:26:00;98511.47;;;17.40;61.60
60820;BME280;46641;48.904;9.126;2022-11-09T17:30:51;98519.41;;;17.40;61.28
60820;BME280;46641;48.904;9.126;2022-11-09T17:35:42;98521.25;;;17.39;61.32
60820;BME280;46641;48.904;9.126;2022-11-09T17:40:32;98524.69;;;17.40;61.13
60820;BME280;46641;48.904;9.126;2022-11-09T17:45:23;98532.63;;;17.40;61.08
60820;BME280;46641;48.904;9.126;2022-11-09T17:50:13;98537.13;;;17.39;61.20
60820;BME280;46641;48.904;9.126;2022-11-09T17:55:04;98528.78;;;16.78;63.96
60820;BME280;46641;48.904;9.126;2022-11-09T17:59:54;98538.88;;;17.11;62.63
60820;BME280;46641;48.904;9.126;2022-11-09T18:04:45;98539.00;;;17.24;61.93
60820;BME280;46641;48.904;9.126;2022-11-09T18:09:35;98549.44;;;17.32;61.44
60820;BME280;46641;48.904;9.126;2022-11-09T18:14:25;98549.25;;;17.34;61.26
60820;BME280;46641;48.904;9.126;2022-11-09T18:19:16;98554.56;;;17.34;61.54
60820;BME280;46641;48.904;9.126;2022-11-09T18:24:06;98553.75;;;17.33;61.20
60820;BME280;46641;48.904;9.126;2022-11-09T18:28:57;98557.38;;;17.32;61.15
60820;BME280;46641;48.904;9.126;2022-11-09T18:33:48;98564.69;;;17.30;61.23
60820;BME280;46641;48.904;9.126;2022-11-09T18:38:38;98565.72;;;17.29;61.13
60820;BME280;46641;48.904;9.126;2022-11-09T18:43:29;98569.19;;;17.29;61.15
60820;BME280;46641;48.904;9.126;2022-11-09T18:48:19;98575.28;;;17.30;60.84
60820;BME280;46641;48.904;9.126;2022-11-09T18:53:10;98585.88;;;17.30;61.07
60820;BME280;46641;48.904;9.126;2022-11-09T18:58:00;98590.34;;;17.29;60.83
60820;BME280;46641;48.904;9.126;2022-11-09T19:02:50;98588.69;;;17.28;60.96
60820;BME280;46641;48.904;9.126;2022-11-09T19:07:41;98593.97;;;17.28;60.71
60820;BME280;46641;48.904;9.126;2022-11-09T19:12:31;98595.81;;;17.28;60.88
60820;BME280;46641;48.904;9.126;2022-11-09T19:17:21;98605.78;;;17.26;60.82
60820;BME280;46641;48.904;9.126;2022-11-09T19:22:14;98616.97;;;17.28;60.65
60820;BME280;46641;48.904;9.126;2022-11-09T19:27:05;98618.16;;;17.25;60.84
60820;BME280;46641;48.904;9.126;2022-11-09T19:31:56;98627.75;;;17.26;60.65
60820;BME280;46641;48.904;9.126;2022-11-09T19:36:47;98632.41;;;17.24;60.72
60820;BME280;46641;48.904;9.126;2022-11-09T19:41:37;98633.41;;;17.23;60.63
60820;BME280;46641;48.904;9.126;2022-11-09T19:46:28;98642.81;;;17.26;60.96
60820;BME280;46641;48.904;9.126;2022-11-09T19:51:20;98654.56;;;17.23;60.80
60820;BME280;46641;48.904;9.126;2022-11-09T19:56:11;98655.38;;;17.24;60.77
60820;BME280;46641;48.904;9.126;2022-11-09T20:01:06;98673.09;;;17.23;60.63
60820;BME280;46641;48.904;9.126;2022-11-09T20:05:57;98676.91;;;17.21;60.90
60820;BME280;46641;48.904;9.126;2022-11-09T20:10:48;98694.78;;;17.19;60.66
60820;BME280;46641;48.904;9.126;2022-11-09T20:15:39;98708.22;;;17.17;60.38
60820;BME280;46641;48.904;9.126;2022-11-09T20:20:29;98721.16;;;17.12;60.87
60820;BME280;46641;48.904;9.126;2022-11-09T20:25:19;98725.63;;;17.12;60.74
60820;BME280;46641;48.904;9.126;2022-11-09T20:30:10;98737.66;;;17.14;60.80
60820;BME280;46641;48.904;9.126;2022-11-09T20:35:01;98747.59;;;17.12;60.63
60820;BME280;46641;48.904;9.126;2022-11-09T20:39:51;98751.25;;;17.11;60.63
60820;BME280;46641;48.904;9.126;2022-11-09T20:44:41;98760.22;;;17.10;60.53
60820;BME280;46641;48.904;9.126;2022-11-09T20:49:32;98762.66;;;17.12;60.79
60820;BME280;46641;48.904;9.126;2022-11-09T20:54:22;98772.25;;;17.13;60.53
60820;BME280;46641;48.904;9.126;2022-11-09T20:59:12;98775.63;;;17.07;60.75
60820;BME280;46641;48.904;9.126;2022-11-09T21:04:03;98791.22;;;17.01;60.85
60820;BME280;46641;48.904;9.126;2022-11-09T21:08:54;98787.53;;;17.02;60.69
60820;BME280;46641;48.904;9.126;2022-11-09T21:13:49;98777.16;;;17.01;60.92
60820;BME280;46641;48.904;9.126;2022-11-09T21:18:41;98777.97;;;17.01;60.68
60820;BME280;46641;48.904;9.126;2022-11-09T21:23:32;98788.75;;;17.00;60.67
60820;BME280;46641;48.904;9.126;2022-11-09T21:28:41;98785.09;;;17.01;60.85
60820;BME280;46641;48.904;9.126;2022-11-09T21:33:51;98789.75;;;16.99;60.77
60820;BME280;46641;48.904;9.126;2022-11-09T21:38:42;98802.59;;;17.02;60.84
60820;BME280;46641;48.904;9.126;2022-11-09T21:43:32;98793.03;;;17.01;60.53
60820;BME280;46641;48.904;9.126;2022-11-09T21:48:22;98808.09;;;17.00;60.72
60820;BME280;46641;48.904;9.126;2022-11-09T21:53:13;98813.53;;;16.99;60.78
60820;BME280;46641;48.904;9.126;2022-11-09T21:58:03;98806.63;;;16.98;60.65
60820;BME280;46641;48.904;9.126;2022-11-09T22:02:53;98826.75;;;16.99;60.65
60820;BME280;46641;48.904;9.126;2022-11-09T22:07:43;98825.47;;;16.95;60.60
60820;BME280;46641;48.904;9.126;2022-11-09T22:12:36;98828.94;;;16.95;60.66
60820;BME280;46641;48.904;9.126;2022-11-09T22:17:45;98821.22;;;16.94;60.67
60820;BME280;46641;48.904;9.126;2022-11-09T22:22:35;98825.84;;;16.92;60.75
60820;BME280;46641;48.904;9.126;2022-11-09T22:27:28;98832.75;;;16.93;60.57
60820;BME280;46641;48.904;9.126;2022-11-09T22:32:20;98837.22;;;16.92;60.78
60820;BME280;46641;48.904;9.126;2022-11-09T22:37:10;98851.47;;;16.91;60.53
60820;BME280;46641;48.904;9.126;2022-11-09T22:42:00;98856.09;;;16.89;60.54
60820;BME280;46641;48.904;9.126;2022-11-09T22:46:51;98870.13;;;16.90;60.98
60820;BME280;46641;48.904;9.126;2022-11-09T22:51:41;98866.88;;;16.88;60.74
60820;BME280;46641;48.904;9.126;2022-11-09T22:56:31;98893.31;;;16.88;60.82
60820;BME280;46641;48.904;9.126;2022-11-09T23:01:22;98903.06;;;16.87;60.53
60820;BME280;46641;48.904;9.126;2022-11-09T23:06:15;98907.53;;;16.87;60.65
60820;BME280;46641;48.904;9.126;2022-11-09T23:11:09;98916.63;;;16.84;60.64
60820;BME280;46641;48.904;9.126;2022-11-09T23:16:01;98920.09;;;16.85;60.49
60820;BME280;46641;48.904;9.126;2022-11-09T23:20:51;98933.47;;;16.83;60.63
60820;BME280;46641;48.904;9.126;2022-11-09T23:25:42;98930.00;;;16.82;60.66
60820;BME280;46641;48.904;9.126;2022-11-09T23:30:45;98933.84;;;16.80;60.78
60820;BME280;46641;48.904;9.126;2022-11-09T23:35:35;98930.72;;;16.76;60.67
60820;BME280;46641;48.904;9.126;2022-11-09T23:40:27;98938.66;;;16.76;60.67
60820;BME280;46641;48.904;9.126;2022-11-09T23:45:17;98937.47;;;16.79;60.64
60820;BME280;46641;48.904;9.126;2022-11-09T23:50:08;98938.66;;;16.76;60.67
60820;BME280;46641;48.904;9.126;2022-11-09T23:54:58;98943.94;;;16.76;60.67
60820;BME280;46641;48.904;9.126;2022-11-09T23:59:48;98941.63;;;16.73;60.64
